Time;durP1;ratioP1;P1;durP2;ratioP2;P2;SDS_P1;SDS_P2;PMS_P1;PMS_P2;Temp;Humidity;BMP_temperature;BMP_pressure;BME280_temperature;BME280_humidity;BME280_pressure;Samples;Min_cycle;Max_cycle;Signal;HPM_P1;HPM_P2
2022/11/12 00:00:22;;;;;;;33.67;18.65;;;10.20;99.90;;;;;;5016971;28;20045;-73
2022/11/12 00:03:08;;;;;;;32.67;19.27;;;11.30;99.90;;;;;;5016057;28;20049;-74
2022/11/12 00:05:54;;;;;;;32.70;20.02;;;11.10;99.90;;;;;;5000008;28;20061;-74
2022/11/12 00:08:40;;;;;;;33.97;19.63;;;11.00;99.90;;;;;;5015944;28;20049;-74
2022/11/12 00:11:26;;;;;;;35.60;20.15;;;11.40;99.90;;;;;;5016097;28;20038;-74
2022/11/12 00:14:12;;;;;;;37.97;20.33;;;10.90;99.90;;;;;;4999952;28;20050;-73
2022/11/12 00:16:58;;;;;;;38.65;19.50;;;10.80;99.90;;;;;;5015171;28;20049;-73
2022/11/12 00:19:44;;;;;;;35.92;20.77;;;11.00;99.90;;;;;;5016935;28;20449;-73
2022/11/12 00:22:30;;;;;;;38.58;22.58;;;11.20;99.90;;;;;;5015811;28;20046;-74
2022/11/12 00:25:16;;;;;;;39.80;21.52;;;10.70;99.90;;;;;;5016645;28;20052;-74
2022/11/12 00:28:08;;;;;;;46.00;22.15;;;10.60;99.90;;;;;;4999578;28;20046;-74
2022/11/12 00:30:54;;;;;;;36.20;22.35;;;10.50;99.90;;;;;;5015559;28;20046;-73
2022/11/12 00:33:41;;;;;;;43.33;23.20;;;10.40;99.90;;;;;;5016253;28;20480;-74
2022/11/12 00:36:27;;;;;;;;;;;10.80;99.90;;;;;;5015783;28;20376;-74
2022/11/12 00:39:14;;;;;;;40.78;22.33;;;10.50;99.90;;;;;;5016449;28;20280;-74
2022/11/12 00:42:00;;;;;;;42.33;23.08;;;10.00;99.90;;;;;;5016023;28;20046;-73
2022/11/12 00:44:48;;;;;;;41.53;21.42;;;10.00;99.90;;;;;;5016107;28;20046;-74
2022/11/12 00:47:36;;;;;;;46.85;22.30;;;9.90;99.90;;;;;;5015620;28;20373;-75
2022/11/12 00:50:22;;;;;;;43.65;22.95;;;9.80;99.90;;;;;;5014975;28;20038;-73
2022/11/12 00:53:09;;;;;;;51.50;23.73;;;10.10;99.90;;;;;;4999278;28;20065;-74
2022/11/12 00:56:06;;;;;;;53.88;24.63;;;9.60;99.90;;;;;;5028141;28;20380;-74
2022/11/12 00:58:52;;;;;;;59.77;27.57;;;9.50;99.90;;;;;;5035668;28;20487;-74
2022/11/12 01:01:38;;;;;;;64.50;26.58;;;10.20;99.90;;;;;;5034896;28;20121;-74
2022/11/12 01:04:26;;;;;;;;;;;9.30;99.90;;;;;;5036166;28;20037;-73
2022/11/12 01:07:17;;;;;;;55.95;25.50;;;9.30;99.90;;;;;;5035466;28;19921;-74
2022/11/12 01:10:04;;;;;;;46.67;24.23;;;9.30;99.90;;;;;;5033680;28;20041;-74
2022/11/12 01:12:50;;;;;;;48.97;24.38;;;9.20;99.90;;;;;;5034889;28;20046;-73
2022/11/12 01:15:40;;;;;;;55.83;24.60;;;9.10;99.90;;;;;;5034273;28;20366;-74
2022/11/12 01:18:27;;;;;;;58.45;26.95;;;9.10;99.90;;;;;;5048636;28;20356;-74
2022/11/12 01:21:14;;;;;;;59.17;26.58;;;9.00;99.90;;;;;;5034495;28;20380;-74
2022/11/12 01:24:00;;;;;;;64.30;27.33;;;8.90;99.90;;;;;;5034313;28;20053;-73
2022/11/12 01:26:47;;;;;;;64.43;29.20;;;8.90;99.90;;;;;;5034393;28;20041;-73
2022/11/12 01:29:33;;;;;;;74.60;30.33;;;10.10;99.90;;;;;;5033249;28;20045;-74
2022/11/12 01:32:19;;;;;;;77.30;33.30;;;8.90;99.90;;;;;;5034783;28;20061;-74
2022/11/12 01:35:05;;;;;;;97.55;38.05;;;9.00;99.90;;;;;;5035294;28;20049;-74
2022/11/12 01:37:51;;;;;;;90.50;39.10;;;9.10;99.90;;;;;;5034674;28;20045;-74
2022/11/12 01:40:37;;;;;;;103.78;41.38;;;9.20;99.90;;;;;;5035209;28;20099;-73
2022/11/12 01:43:23;;;;;;;97.20;40.35;;;10.70;99.90;;;;;;5034221;28;20041;-74
2022/11/12 01:46:18;;;;;;;95.60;40.60;;;10.10;99.90;;;;;;5034965;28;20376;-74
2022/11/12 01:49:10;;;;;;;92.22;37.28;;;9.60;99.90;;;;;;5033748;28;20480;-73
2022/11/12 01:52:02;;;;;;;91.65;36.92;;;11.10;99.90;;;;;;5034577;28;20483;-73
2022/11/12 01:54:52;;;;;;;83.25;35.33;;;10.50;99.90;;;;;;5034062;28;20053;-73
2022/11/12 01:57:50;;;;;;;75.00;33.00;;;10.30;99.90;;;;;;5033560;28;20511;-74
2022/11/12 02:00:37;;;;;;;72.38;34.05;;;10.20;99.90;;;;;;5033996;28;20049;-73
2022/11/12 02:03:24;;;;;;;62.80;31.75;;;9.90;99.90;;;;;;5032558;28;20046;-73
2022/11/12 02:06:13;;;;;;;76.53;32.05;;;11.00;99.90;;;;;;5034978;28;20065;-74
2022/11/12 02:08:59;;;;;;;74.32;32.78;;;10.80;99.90;;;;;;5032789;28;20045;-73
2022/11/12 02:11:45;;;;;;;69.32;31.05;;;10.00;99.90;;;;;;5035248;28;20049;-73
2022/11/12 02:14:32;;;;;;;64.03;29.85;;;10.10;99.90;;;;;;5034806;28;20041;-74
2022/11/12 02:17:18;;;;;;;62.65;30.60;;;10.10;99.90;;;;;;5033642;28;20380;-74
2022/11/12 02:20:07;;;;;;;59.20;30.10;;;10.10;99.90;;;;;;5035162;28;20049;-73
2022/11/12 02:22:53;;;;;;;60.55;29.60;;;10.20;99.90;;;;;;5033569;28;20048;-74
2022/11/12 02:25:39;;;;;;;59.45;29.50;;;10.70;99.90;;;;;;5034673;28;20048;-73
2022/11/12 02:28:26;;;;;;;52.33;27.17;;;10.70;99.90;;;;;;5034908;28;20045;-73
2022/11/12 02:31:12;;;;;;;;;;;10.40;99.90;;;;;;5034480;28;20056;-74
2022/11/12 02:33:58;;;;;;;48.65;25.30;;;11.00;99.90;;;;;;5033605;28;20248;-73
2022/11/12 02:36:45;;;;;;;51.63;25.33;;;10.50;99.90;;;;;;5033498;28;20056;-73
2022/11/12 02:39:31;;;;;;;43.80;24.92;;;10.50;99.90;;;;;;5037560;28;20056;-74
2022/11/12 02:42:16;;;;;;;53.25;24.80;;;10.60;99.90;;;;;;5037348;28;20057;-74
2022/11/12 02:45:03;;;;;;;49.25;25.08;;;10.60;99.90;;;;;;5037276;28;20052;-75
2022/11/12 02:47:49;;;;;;;43.10;22.05;;;10.60;99.90;;;;;;5038500;28;20041;-73
2022/11/12 02:50:35;;;;;;;44.55;23.45;;;10.60;99.90;;;;;;5037320;28;20049;-74
2022/11/12 02:53:21;;;;;;;42.00;23.50;;;11.00;99.90;;;;;;5051555;28;20053;-73
2022/11/12 02:56:07;;;;;;;41.58;24.08;;;11.70;99.90;;;;;;5018058;28;20054;-74
2022/11/12 02:58:53;;;;;;;44.88;23.23;;;10.80;99.90;;;;;;5003789;28;20484;-74
2022/11/12 03:01:39;;;;;;;46.92;23.63;;;10.80;99.90;;;;;;5018286;28;20048;-74
2022/11/12 03:04:25;;;;;;;45.13;23.25;;;10.80;99.90;;;;;;5017767;28;20042;-74
2022/11/12 03:07:11;;;;;;;41.70;23.38;;;10.80;99.90;;;;;;5018022;28;20041;-74
2022/11/12 03:09:57;;;;;;;41.13;22.80;;;10.90;99.90;;;;;;5016800;28;20042;-74
2022/11/12 03:12:43;;;;;;;35.55;22.45;;;10.90;99.90;;;;;;5001251;28;20346;-74
2022/11/12 03:15:29;;;;;;;43.47;22.58;;;11.00;99.90;;;;;;4999724;28;20053;-73
2022/11/12 03:18:15;;;;;;;35.58;21.10;;;11.00;99.90;;;;;;5018022;28;20046;-74
2022/11/12 03:21:01;;;;;;;38.50;22.48;;;8.90;99.90;;;;;;5003521;28;20046;-73
2022/11/12 03:23:47;;;;;;;37.33;21.48;;;11.00;99.90;;;;;;5016967;28;20056;-74
2022/11/12 03:26:33;;;;;;;38.78;22.63;;;11.40;99.90;;;;;;5016842;28;20039;-73
2022/11/12 03:29:20;;;;;;;40.83;23.25;;;11.10;99.90;;;;;;5016899;28;20373;-74
2022/11/12 03:32:06;;;;;;;48.13;23.23;;;11.10;99.90;;;;;;5017745;28;20065;-74
2022/11/12 03:34:52;;;;;;;45.70;23.15;;;11.20;99.90;;;;;;5000062;28;20046;-73
2022/11/12 03:37:40;;;;;;;42.42;23.13;;;11.70;99.90;;;;;;5016476;28;20045;-74
2022/11/12 03:40:27;;;;;;;48.03;24.55;;;11.30;99.90;;;;;;5017751;28;20054;-74
2022/11/12 03:43:13;;;;;;;43.78;24.92;;;11.30;99.90;;;;;;5016213;28;20050;-74
2022/11/12 03:45:59;;;;;;;52.47;25.73;;;11.40;99.90;;;;;;5017292;28;20050;-75
2022/11/12 03:48:46;;;;;;;46.38;26.60;;;11.40;99.90;;;;;;4999116;28;20060;-74
2022/11/12 03:51:32;;;;;;;56.22;29.70;;;11.40;99.90;;;;;;5016326;28;20053;-73
2022/11/12 03:54:19;;;;;;;49.85;29.25;;;11.50;99.90;;;;;;5017203;28;20046;-74
2022/11/12 03:57:05;;;;;;;50.45;29.05;;;11.60;99.90;;;;;;5016234;28;20049;-74
2022/11/12 03:59:50;;;;;;;52.92;27.90;;;11.60;99.90;;;;;;4999812;28;20042;-74
2022/11/12 04:02:37;;;;;;;52.20;28.40;;;11.60;99.90;;;;;;5016298;28;20342;-74
2022/11/12 04:08:34;;;;;;;49.13;28.15;;;11.70;99.90;;;;;;5016705;28;20053;-74
2022/11/12 04:11:20;;;;;;;55.15;28.70;;;11.80;99.90;;;;;;5017328;28;20053;-74
2022/11/12 04:14:06;;;;;;;56.13;27.23;;;11.80;99.90;;;;;;4999872;28;20061;-73
2022/11/12 04:23:02;;;;;;;51.92;26.80;;;11.80;99.90;;;;;;5016095;28;20050;-74
2022/11/12 04:26:31;;;;;;;51.97;28.00;;;11.80;99.90;;;;;;5016664;28;20057;-74
2022/11/12 04:32:03;;;;;;;54.22;26.80;;;11.70;99.90;;;;;;5016406;28;20061;-74
2022/11/12 04:34:49;;;;;;;53.65;28.80;;;11.70;99.90;;;;;;5016588;28;20046;-74
2022/11/12 04:37:45;;;;;;;58.95;26.38;;;11.90;99.90;;;;;;4998074;28;20045;-74
2022/11/12 04:46:40;;;;;;;51.88;28.13;;;11.40;99.90;;;;;;5016130;28;20053;-73
2022/11/12 04:49:26;;;;;;;52.05;27.35;;;12.20;99.90;;;;;;5015374;28;20046;-74
2022/11/12 04:52:13;;;;;;;50.50;28.30;;;11.10;99.90;;;;;;5016753;28;20045;-74
2022/11/12 04:54:59;;;;;;;62.58;29.13;;;11.80;99.90;;;;;;5014290;28;20061;-74
2022/11/12 04:57:45;;;;;;;58.13;28.52;;;10.80;99.90;;;;;;5035173;28;20037;-74
2022/11/12 05:00:31;;;;;;;65.40;30.27;;;11.40;99.90;;;;;;5035667;28;20049;-74
2022/11/12 05:03:18;;;;;;;80.18;35.22;;;11.10;99.90;;;;;;5034150;28;20706;-73
2022/11/12 05:06:50;;;;;;;85.15;35.95;;;10.50;99.90;;;;;;5034830;28;20041;-74
2022/11/12 05:09:11;;;;;;;81.93;35.75;;;10.50;99.90;;;;;;5033258;28;20052;-74
2022/11/12 05:11:58;;;;;;;68.22;33.92;;;11.20;99.90;;;;;;5035725;28;20214;-73
2022/11/12 05:14:44;;;;;;;73.78;35.72;;;10.70;99.90;;;;;;5034817;28;20050;-74
2022/11/12 05:17:30;;;;;;;76.30;34.30;;;10.40;99.90;;;;;;5034395;28;20037;-74
2022/11/12 05:20:17;;;;;;;102.30;36.78;;;10.50;99.90;;;;;;5035546;28;20108;-74
2022/11/12 05:23:03;;;;;;;91.97;38.65;;;10.40;99.90;;;;;;5033463;28;20492;-73
2022/11/12 05:25:53;;;;;;;83.88;37.60;;;10.40;99.90;;;;;;5035490;28;20045;-74
2022/11/12 05:28:38;;;;;;;91.82;38.35;;;10.30;99.90;;;;;;5035200;28;20045;-74
2022/11/12 05:31:24;;;;;;;91.18;38.97;;;10.60;99.90;;;;;;5034446;28;20456;-74
2022/11/12 05:34:11;;;;;;;84.70;38.83;;;10.40;99.90;;;;;;5035481;28;20062;-74
2022/11/12 05:36:57;;;;;;;95.47;40.65;;;10.80;99.90;;;;;;5034270;28;20365;-74
2022/11/12 05:39:43;;;;;;;90.00;39.30;;;11.20;99.90;;;;;;5020258;28;20049;-74
2022/11/12 05:42:29;;;;;;;91.18;39.40;;;10.90;99.90;;;;;;5033531;28;20049;-73
2022/11/12 05:45:15;;;;;;;97.57;41.67;;;11.00;99.90;;;;;;5034303;28;20057;-74
2022/11/12 05:48:01;;;;;;;89.18;41.83;;;11.40;99.90;;;;;;5034388;28;20475;-74
2022/11/12 05:50:51;;;;;;;84.97;40.50;;;11.10;99.90;;;;;;5033853;28;20040;-74
2022/11/12 05:53:57;;;;;;;91.95;40.10;;;11.10;99.90;;;;;;5033749;28;20064;-74
2022/11/12 05:56:43;;;;;;;86.70;41.70;;;10.90;99.90;;;;;;5013934;28;20046;-73
2022/11/12 05:59:29;;;;;;;93.25;41.85;;;11.00;99.90;;;;;;5015539;28;20056;-73
2022/11/12 06:02:15;;;;;;;82.78;41.50;;;11.00;99.90;;;;;;5014251;28;20052;-73
2022/11/12 06:05:02;;;;;;;93.80;41.83;;;11.20;99.90;;;;;;5015121;28;20046;-74
2022/11/12 06:07:47;;;;;;;82.55;42.22;;;11.20;99.90;;;;;;4984425;28;20072;-74
2022/11/12 06:10:34;;;;;;;82.85;40.17;;;11.10;99.90;;;;;;5013902;28;20042;-73
2022/11/12 06:13:21;;;;;;;79.10;39.63;;;11.30;99.90;;;;;;5014577;28;20037;-74
2022/11/12 06:16:08;;;;;;;86.72;39.90;;;11.40;99.90;;;;;;5013922;28;20484;-73
2022/11/12 06:18:54;;;;;;;73.55;39.67;;;11.40;99.90;;;;;;5014972;28;20464;-73
2022/11/12 06:21:40;;;;;;;78.40;37.78;;;11.60;99.90;;;;;;5014867;28;20050;-73
2022/11/12 06:24:28;;;;;;;64.07;32.60;;;11.50;99.90;;;;;;5014210;28;20464;-73
2022/11/12 06:27:22;;;;;;;66.10;33.53;;;11.50;99.90;;;;;;5015713;28;20053;-75
2022/11/12 06:30:09;;;;;;;63.42;35.97;;;11.50;99.90;;;;;;5033700;28;20049;-75
2022/11/12 06:32:56;;;;;;;60.50;33.23;;;10.60;99.90;;;;;;5034563;28;20041;-74
2022/11/12 06:35:41;;;;;;;60.22;34.05;;;11.60;99.90;;;;;;5016407;28;20298;-74
2022/11/12 06:38:29;;;;;;;63.42;34.25;;;11.60;99.90;;;;;;5035277;28;20049;-74
2022/11/12 06:41:15;;;;;;;66.07;33.78;;;11.50;99.90;;;;;;5034570;28;20345;-74
2022/11/12 06:44:03;;;;;;;65.22;35.00;;;11.80;99.90;;;;;;5033136;28;20045;-75
2022/11/12 06:46:50;;;;;;;56.30;32.38;;;11.70;99.90;;;;;;5034917;28;20360;-74
2022/11/12 06:49:36;;;;;;;53.67;30.60;;;11.70;99.90;;;;;;5033392;28;20048;-74
2022/11/12 06:52:22;;;;;;;52.63;30.63;;;11.70;99.90;;;;;;5034434;28;20045;-74
2022/11/12 06:55:08;;;;;;;47.63;28.05;;;12.70;99.90;;;;;;5034224;28;20064;-73
2022/11/12 06:57:54;;;;;;;52.58;31.13;;;11.80;99.90;;;;;;5019600;28;20041;-73
2022/11/12 07:00:40;;;;;;;56.50;30.02;;;12.20;99.90;;;;;;5034259;28;20046;-75
2022/11/12 07:03:26;;;;;;;49.22;28.50;;;11.90;99.90;;;;;;5033393;28;20052;-74
2022/11/12 07:06:17;;;;;;;54.97;28.80;;;11.90;99.90;;;;;;5019799;28;20057;-74
2022/11/12 07:09:05;;;;;;;53.97;29.70;;;11.90;99.90;;;;;;5032850;28;20041;-74
2022/11/12 07:11:51;;;;;;;56.58;30.63;;;11.90;99.90;;;;;;5034250;28;20060;-73
2022/11/12 07:14:39;;;;;;;50.80;28.85;;;12.00;99.90;;;;;;5034266;28;20060;-73
2022/11/12 07:17:25;;;;;;;47.38;30.20;;;12.30;99.90;;;;;;5032912;28;20042;-74
2022/11/12 07:20:11;;;;;;;57.45;29.30;;;12.00;99.90;;;;;;5017259;28;20057;-73
2022/11/12 07:23:00;;;;;;;48.45;28.98;;;12.00;99.90;;;;;;5033126;28;20041;-74
2022/11/12 07:25:46;;;;;;;51.42;28.75;;;12.00;99.90;;;;;;5035355;28;20037;-74
2022/11/12 07:28:32;;;;;;;50.90;29.77;;;12.00;99.90;;;;;;5038017;28;20041;-73
2022/11/12 07:31:20;;;;;;;53.75;29.02;;;12.10;99.90;;;;;;5020271;28;20480;-75
2022/11/12 07:34:06;;;;;;;46.63;28.33;;;12.10;99.90;;;;;;5037586;28;20052;-74
2022/11/12 07:36:52;;;;;;;49.58;27.38;;;12.10;99.90;;;;;;5036718;28;20053;-75
2022/11/12 07:39:40;;;;;;;51.58;28.73;;;12.20;99.90;;;;;;5020354;28;20491;-73
2022/11/12 07:42:26;;;;;;;53.70;29.17;;;12.20;99.90;;;;;;5036587;28;20060;-74
2022/11/12 07:45:12;;;;;;;51.13;27.67;;;12.20;99.90;;;;;;5037364;28;20041;-74
2022/11/12 07:47:59;;;;;;;46.30;27.60;;;12.20;99.90;;;;;;5037832;28;20052;-74
2022/11/12 07:50:45;;;;;;;51.25;27.00;;;12.30;99.90;;;;;;5036824;28;20108;-73
2022/11/12 07:53:32;;;;;;;48.85;28.08;;;12.30;99.90;;;;;;5022900;28;20048;-74
2022/11/12 07:56:20;;;;;;;44.05;25.77;;;12.40;99.90;;;;;;5036370;28;20041;-75
2022/11/12 07:59:07;;;;;;;51.85;26.33;;;12.60;99.90;;;;;;5019612;28;20069;-74
2022/11/12 08:01:53;;;;;;;49.50;27.67;;;12.40;99.90;;;;;;5006402;28;20060;-74
2022/11/12 08:04:39;;;;;;;48.75;25.48;;;12.40;99.90;;;;;;5037278;28;20053;-73
2022/11/12 08:07:25;;;;;;;49.92;26.75;;;12.30;99.90;;;;;;5021507;28;20049;-74
2022/11/12 08:10:12;;;;;;;44.58;22.48;;;12.50;99.90;;;;;;5035728;28;20372;-74
2022/11/12 08:12:58;;;;;;;47.25;25.15;;;10.80;99.90;;;;;;5022007;28;20044;-74
2022/11/12 08:15:47;;;;;;;44.40;26.40;;;12.80;99.90;;;;;;5021465;28;20064;-73
2022/11/12 08:18:39;;;;;;;44.92;25.05;;;12.70;99.90;;;;;;5005885;28;20045;-74
2022/11/12 08:21:27;;;;;;;43.95;25.17;;;12.80;99.90;;;;;;5036048;28;20053;-77
2022/11/12 08:24:13;;;;;;;44.63;24.20;;;12.90;99.90;;;;;;5017528;28;20473;-75
2022/11/12 08:27:00;;;;;;;39.50;22.98;;;13.10;99.90;;;;;;5018974;28;20049;-74
2022/11/12 08:29:48;;;;;;;38.05;22.20;;;11.90;99.90;;;;;;5035272;28;20060;-74
2022/11/12 08:32:37;;;;;;;34.63;21.98;;;12.60;99.90;;;;;;5035963;28;20117;-72
2022/11/12 08:35:25;;;;;;;34.50;22.20;;;13.10;99.90;;;;;;5021113;28;20042;-73
2022/11/12 08:38:13;;;;;;;37.35;22.60;;;13.20;99.90;;;;;;5018629;28;20049;-74
2022/11/12 08:41:03;;;;;;;37.70;20.98;;;13.20;99.90;;;;;;5035963;28;20479;-74
2022/11/12 08:43:52;;;;;;;31.90;20.23;;;13.30;99.90;;;;;;5034489;28;20049;-75
2022/11/12 08:46:38;;;;;;;38.92;20.35;;;13.30;99.90;;;;;;5035855;28;20044;-73
2022/11/12 08:49:24;;;;;;;35.75;21.67;;;13.30;99.90;;;;;;5034570;28;20064;-74
2022/11/12 08:52:18;;;;;;;34.42;21.10;;;13.30;99.90;;;;;;5020908;28;20042;-74
2022/11/12 08:55:09;;;;;;;34.20;20.65;;;13.40;99.90;;;;;;5016662;28;20368;-76
2022/11/12 08:58:02;;;;;;;35.25;21.80;;;13.40;99.90;;;;;;5035692;28;20037;-74
2022/11/12 09:00:49;;;;;;;38.63;21.67;;;12.10;99.90;;;;;;5036283;28;20379;-75
2022/11/12 09:03:36;;;;;;;40.97;21.48;;;13.50;99.90;;;;;;5034651;28;20383;-75
2022/11/12 09:06:22;;;;;;;38.65;21.08;;;13.60;99.90;;;;;;5035916;28;20049;-75
2022/11/12 09:09:08;;;;;;;37.55;20.92;;;13.60;99.90;;;;;;5034423;28;20049;-76
2022/11/12 09:12:00;;;;;;;36.25;22.88;;;13.60;99.90;;;;;;5035852;28;20041;-75
2022/11/12 09:14:58;;;;;;;36.00;20.88;;;13.60;99.90;;;;;;5035631;28;20345;-74
2022/11/12 09:18:09;;;;;;;40.67;21.30;;;13.70;99.90;;;;;;5034760;28;20468;-76
2022/11/12 09:21:12;;;;;;;38.72;21.83;;;13.60;99.90;;;;;;5035617;28;20283;-74
2022/11/12 09:23:58;;;;;;;37.08;21.45;;;13.70;99.90;;;;;;5034392;28;20464;-75
2022/11/12 09:26:53;;;;;;;34.75;21.13;;;13.70;99.90;;;;;;5034814;28;20040;-75
2022/11/12 09:29:48;;;;;;;33.50;20.42;;;13.80;99.90;;;;;;5034575;28;20052;-76
2022/11/12 09:32:55;;;;;;;36.35;21.25;;;13.80;99.90;;;;;;5035092;28;20377;-76
2022/11/12 09:35:56;;;;;;;38.75;20.55;;;13.80;99.90;;;;;;5033315;28;20461;-76
2022/11/12 09:38:42;;;;;;;35.45;20.20;;;13.90;99.90;;;;;;5035625;28;20368;-75
2022/11/12 09:41:41;;;;;;;36.25;20.60;;;13.90;99.90;;;;;;5034961;28;20041;-75
2022/11/12 09:44:29;;;;;;;38.58;21.10;;;14.00;99.90;;;;;;5035027;28;20045;-75
2022/11/12 09:47:44;;;;;;;36.42;20.65;;;13.90;99.90;;;;;;5034210;28;20048;-75
2022/11/12 09:50:49;;;;;;;31.15;19.95;;;14.00;99.90;;;;;;5032804;28;20571;-75
2022/11/12 09:53:57;;;;;;;34.25;19.92;;;14.00;99.90;;;;;;5053735;28;20047;-75
2022/11/12 09:56:43;;;;;;;31.23;19.08;;;14.10;99.90;;;;;;5034154;28;20392;-75
2022/11/12 09:59:33;;;;;;;33.60;18.95;;;14.10;99.90;;;;;;5020356;28;20048;-75
2022/11/12 10:02:57;;;;;;;31.08;19.13;;;12.10;99.90;;;;;;5033903;28;20053;-75
2022/11/12 10:06:03;;;;;;;26.38;17.02;;;14.20;99.90;;;;;;4991832;28;20050;-75
2022/11/12 10:09:17;;;;;;;30.88;18.13;;;14.40;99.90;;;;;;5033803;28;20042;-75
2022/11/12 10:12:33;;;;;;;;;;;14.50;99.90;;;;;;5035080;28;20056;-75
2022/11/12 10:19:10;;;;;;;26.70;16.60;;;14.70;99.90;;;;;;5034589;28;20041;-76
2022/11/12 10:22:24;;;;;;;26.48;16.40;;;14.80;99.90;;;;;;5034551;28;20038;-75
2022/11/12 10:25:13;;;;;;;24.00;14.93;;;14.80;99.90;;;;;;5019677;28;20068;-75
2022/11/12 10:28:10;;;;;;;25.50;14.38;;;14.90;99.90;;;;;;5034964;28;20042;-76
2022/11/12 10:31:07;;;;;;;25.48;15.07;;;14.90;99.90;;;;;;5015983;28;20376;-75
2022/11/12 10:34:10;;;;;;;26.57;15.00;;;15.00;99.90;;;;;;5017031;28;20045;-75
2022/11/12 10:37:04;;;;;;;22.33;14.05;;;14.50;99.90;;;;;;5016036;28;20045;-76
2022/11/12 10:40:19;;;;;;;25.65;14.73;;;14.90;99.90;;;;;;5030274;28;20050;-77
2022/11/12 10:43:14;;;;;;;24.42;14.85;;;15.10;99.90;;;;;;5031341;28;20045;-74
2022/11/12 10:46:23;;;;;;;21.77;15.00;;;15.00;99.90;;;;;;5032429;28;20053;-74
2022/11/12 10:49:15;;;;;;;20.85;14.13;;;15.00;99.90;;;;;;5033642;28;20078;-74
2022/11/12 10:52:01;;;;;;;24.58;14.25;;;15.00;99.90;;;;;;5034597;28;20050;-73
2022/11/12 10:55:01;;;;;;;22.50;14.73;;;15.00;99.90;;;;;;5034230;28;20057;-75
2022/11/12 10:58:08;;;;;;;22.33;14.23;;;14.90;99.90;;;;;;5020051;28;20037;-74
2022/11/12 11:01:03;;;;;;;20.45;13.88;;;14.90;99.90;;;;;;5009131;28;20053;-74
2022/11/12 11:03:54;;;;;;;25.95;14.80;;;14.80;99.90;;;;;;5037136;28;20045;-74
2022/11/12 11:06:43;;;;;;;20.42;14.10;;;14.80;99.90;;;;;;5037886;28;20046;-74
2022/11/12 11:09:31;;;;;;;20.45;14.48;;;14.80;99.90;;;;;;5037048;28;20064;-74
2022/11/12 11:12:30;;;;;;;22.15;13.38;;;14.90;99.90;;;;;;5018931;28;20380;-75
2022/11/12 11:15:24;;;;;;;27.33;14.98;;;15.00;99.90;;;;;;5018019;28;20042;-75
2022/11/12 11:18:13;;;;;;;19.67;14.10;;;15.00;99.90;;;;;;5018192;28;20464;-75
2022/11/12 11:21:23;;;;;;;24.83;15.15;;;15.10;99.90;;;;;;5017794;28;20049;-75
2022/11/12 11:24:38;;;;;;;24.33;14.50;;;15.20;99.90;;;;;;5016575;28;20049;-75
2022/11/12 11:27:32;;;;;;;23.58;14.63;;;15.20;99.90;;;;;;5017728;28;20056;-73
2022/11/12 11:30:20;;;;;;;23.10;15.02;;;15.20;99.90;;;;;;5031573;28;20037;-75
2022/11/12 11:33:43;;;;;;;24.98;13.90;;;15.20;99.90;;;;;;5021765;28;20380;-76
2022/11/12 11:36:48;;;;;;;21.05;13.35;;;15.20;99.90;;;;;;5036616;28;20064;-76
2022/11/12 11:40:05;;;;;;;21.13;13.48;;;15.10;99.90;;;;;;5037428;28;20045;-78
2022/11/12 11:43:15;;;;;;;19.10;13.47;;;14.10;99.90;;;;;;5036173;28;20052;-75
2022/11/12 11:46:23;;;;;;;20.17;13.10;;;15.20;99.90;;;;;;5037303;28;20041;-75
2022/11/12 11:49:33;;;;;;;23.90;14.43;;;15.20;99.90;;;;;;5035952;28;20057;-75
2022/11/12 11:52:25;;;;;;;21.50;13.40;;;15.30;99.90;;;;;;5020057;28;20523;-75
2022/11/12 11:55:37;;;;;;;20.63;13.85;;;15.30;99.90;;;;;;5037106;28;20054;-75
2022/11/12 11:59:02;;;;;;;20.15;13.52;;;15.40;99.90;;;;;;5019502;28;20491;-75
2022/11/12 12:02:19;;;;;;;21.17;13.50;;;15.40;99.90;;;;;;5019429;28;20454;-76
2022/11/12 12:05:24;;;;;;;20.13;13.60;;;15.40;99.90;;;;;;5022294;28;20045;-75
2022/11/12 12:09:11;;;;;;;23.52;13.75;;;15.30;99.90;;;;;;5036834;28;20522;-75
2022/11/12 12:11:56;;;;;;;18.77;13.07;;;15.30;99.90;;;;;;5036175;28;20041;-75
2022/11/12 12:15:05;;;;;;;19.33;12.40;;;15.30;99.90;;;;;;5022544;28;20053;-76
2022/11/12 12:18:15;;;;;;;19.23;12.93;;;15.20;99.90;;;;;;5022357;28;20475;-75
2022/11/12 12:21:13;;;;;;;19.00;12.10;;;15.00;99.90;;;;;;5036657;28;20045;-75
2022/11/12 12:24:14;;;;;;;21.83;12.93;;;14.90;99.90;;;;;;5017777;28;20379;-76
2022/11/12 12:27:10;;;;;;;23.00;13.13;;;14.90;99.90;;;;;;5036594;28;20056;-75
2022/11/12 12:30:20;;;;;;;21.80;13.05;;;14.70;99.90;;;;;;5035161;28;20052;-76
2022/11/12 12:33:40;;;;;;;19.15;13.07;;;14.70;99.90;;;;;;5036736;28;20522;-76
2022/11/12 12:36:40;;;;;;;18.40;12.18;;;14.70;99.90;;;;;;5020594;28;20487;-76
2022/11/12 12:40:02;;;;;;;17.85;11.70;;;14.90;99.90;;;;;;5036238;28;20045;-75
2022/11/12 12:43:49;;;;;;;18.13;11.55;;;14.60;99.90;;;;;;4920020;29;20066;-75
2022/11/12 12:47:11;;;;;;;21.77;11.88;;;14.60;99.90;;;;;;4995014;28;20058;-75
2022/11/12 12:50:12;;;;;;;18.05;10.50;;;14.40;99.90;;;;;;4938721;29;20070;-76
2022/11/12 12:53:16;;;;;;;15.80;10.27;;;14.40;99.90;;;;;;5005568;28;20125;-76
2022/11/12 12:56:31;;;;;;;19.08;11.10;;;14.40;99.90;;;;;;5034996;28;20049;-75
2022/11/12 12:59:22;;;;;;;18.48;9.85;;;14.30;99.90;;;;;;5035685;28;20033;-74
2022/11/12 13:02:20;;;;;;;15.13;9.55;;;14.40;99.90;;;;;;5034814;28;20049;-75
2022/11/12 13:05:31;;;;;;;16.45;9.35;;;14.40;99.90;;;;;;5018689;28;20476;-75
2022/11/12 13:08:22;;;;;;;;;;;14.40;99.90;;;;;;5036585;28;20048;-75
2022/11/12 13:12:20;;;;;;;15.35;9.50;;;14.40;99.90;;;;;;5018349;28;19925;-73
2022/11/12 13:14:39;;;;;;;15.23;9.82;;;14.40;99.90;;;;;;5018005;28;20068;-75
2022/11/12 13:17:43;;;;;;;15.90;8.85;;;14.40;99.90;;;;;;5017192;28;20045;-76
2022/11/12 13:20:38;;;;;;;15.27;8.85;;;14.40;99.90;;;;;;5035851;28;20056;-75
2022/11/12 13:24:07;;;;;;;15.10;8.65;;;14.40;99.90;;;;;;5033637;28;20044;-74
2022/11/12 13:26:59;;;;;;;16.52;9.23;;;14.40;99.90;;;;;;5018513;28;20492;-76
2022/11/12 13:29:50;;;;;;;17.10;9.27;;;15.70;99.90;;;;;;5034179;28;20053;-75
2022/11/12 13:32:48;;;;;;;14.60;9.38;;;14.60;99.90;;;;;;5035210;28;20061;-76
2022/11/12 13:35:38;;;;;;;15.07;9.57;;;14.50;99.90;;;;;;5034397;28;20064;-75
2022/11/12 13:38:24;;;;;;;16.27;9.60;;;14.50;99.90;;;;;;5035218;28;20049;-76
2022/11/12 13:42:46;;;;;;;17.40;9.90;;;14.50;99.90;;;;;;5034823;28;20030;-76
2022/11/12 13:44:30;;;;;;;17.52;9.52;;;15.50;99.90;;;;;;5011857;28;20534;-75
2022/11/12 13:47:20;;;;;;;20.85;8.70;;;14.50;99.90;;;;;;4997951;28;20073;-76
2022/11/12 13:50:14;;;;;;;13.52;8.55;;;14.50;99.90;;;;;;5014323;28;20042;-75
2022/11/12 13:53:12;;;;;;;16.27;7.97;;;14.50;99.90;;;;;;4998193;28;20046;-75
2022/11/12 13:56:00;;;;;;;14.68;7.88;;;14.50;99.90;;;;;;5028644;28;20459;-75
2022/11/12 13:58:49;;;;;;;15.23;7.68;;;14.50;99.90;;;;;;5034990;28;20041;-75
2022/11/12 14:01:49;;;;;;;13.73;7.35;;;14.60;99.90;;;;;;5033894;28;20060;-75
2022/11/12 14:04:35;;;;;;;11.27;7.53;;;13.60;99.90;;;;;;5035109;28;20380;-75
2022/11/12 14:07:41;;;;;;;18.92;8.27;;;14.60;99.90;;;;;;5033750;28;20064;-76
2022/11/12 14:10:33;;;;;;;13.07;7.47;;;14.60;99.90;;;;;;5033518;28;20053;-75
2022/11/12 14:13:46;;;;;;;12.95;7.68;;;14.60;99.90;;;;;;5034795;28;20048;-75
2022/11/12 14:17:03;;;;;;;13.93;7.50;;;14.60;99.90;;;;;;5033599;28;20049;-75
2022/11/12 14:20:13;;;;;;;16.85;7.75;;;14.60;99.90;;;;;;5034785;28;20053;-76
2022/11/12 14:23:14;;;;;;;12.52;7.82;;;14.60;99.90;;;;;;5032951;28;20117;-76
2022/11/12 14:26:16;;;;;;;12.65;7.90;;;14.60;99.90;;;;;;5034436;28;20124;-76
2022/11/12 14:29:21;;;;;;;14.65;8.60;;;14.60;99.90;;;;;;5033084;28;20116;-76
2022/11/12 14:32:08;;;;;;;13.73;8.50;;;14.50;99.90;;;;;;5034711;28;20038;-76
2022/11/12 14:34:57;;;;;;;15.47;9.17;;;14.50;99.90;;;;;;5036276;28;20357;-75
2022/11/12 14:37:50;;;;;;;17.33;9.27;;;15.00;99.90;;;;;;5037432;28;20057;-75
2022/11/12 14:41:23;;;;;;;18.90;9.05;;;14.80;99.90;;;;;;5038012;28;20045;-75
2022/11/12 14:44:19;;;;;;;14.75;9.13;;;14.30;99.90;;;;;;5022786;28;20049;-75
2022/11/12 14:47:08;;;;;;;13.52;9.70;;;14.30;99.90;;;;;;5038324;28;20045;-73
2022/11/12 14:49:55;;;;;;;14.07;9.55;;;14.20;99.90;;;;;;5036181;28;20041;-73
2022/11/12 14:52:46;;;;;;;18.30;10.15;;;14.20;99.90;;;;;;5037649;28;20048;-75
2022/11/12 14:55:35;;;;;;;16.73;10.15;;;14.20;99.90;;;;;;5023370;28;20054;-73
2022/11/12 14:58:23;;;;;;;17.80;11.02;;;14.10;99.90;;;;;;5018273;28;20042;-75
2022/11/12 15:01:17;;;;;;;;;;;14.00;99.90;;;;;;5001798;28;20060;-75